• Join FlightAware (Why Join?)
  • Login
  • US Flag 
01:43AM EDT


 

Airport Tracker/Info


-or-


 

Live Flight TrackerFlight Track Log ✈ CAV521 ✈ 10-May-2013 ✈ CYWG - CYTH

Flight Track Log - Related Links

Times and Time Zones

All times are in EDT time to prevent confusion due to time zone crossing. See the CAV521 flight status page for this flight to view local times or setup timezone preferences in your user account.

Time Position Orientation Groundspeed Altitude Reporting Facility
EDT Latitude Longitude Course Direction KTS MPH feet Rate Location/Type
09:08PM 49.9000 -97.2500 356° North 130 150 1,600  Level Winnipeg Center
09:09PM 49.9333 -97.3000 316° Northwest 160 184 2,600 1,140 Climbing Winnipeg Center
09:10PM 49.9667 -97.3333 327° Northwest 150 173 3,900 1,200 Climbing Winnipeg Center
09:11PM 50.0000 -97.3333 360° North 150 173 5,000 1,140 Climbing Winnipeg Center
09:12PM 50.0500 -97.3500 348° North 160 184 6,200 1,140 Climbing Winnipeg Center
09:13PM 50.1000 -97.3500 360° North 150 173 7,300 1,140 Climbing Winnipeg Center
09:14PM 50.3347 -97.2718 356° North  Level FlightAware Approximate
09:14PM 50.1333 -97.3500 360° North 150 173 8,500  Level Winnipeg Center
09:15PM 50.1833 -97.3500 360° North 160 184 9,500 1,020 Climbing Winnipeg Center
09:16PM 50.2333 -97.3500 360° North 160 184 10,600 1,020 Climbing Winnipeg Center
09:17PM 50.2667 -97.3500 360° North 160 184 11,600 960 Climbing Winnipeg Center
09:18PM 50.3167 -97.3667 348° North 160 184 12,600 960 Climbing Winnipeg Center
09:19PM 50.3667 -97.3667 360° North 160 184 13,600 900 Climbing Winnipeg Center
09:20PM 50.4000 -97.3667 360° North 170 196 14,500 900 Climbing Winnipeg Center
09:21PM 50.4500 -97.3833 348° North 160 184 15,500 900 Climbing Winnipeg Center
09:22PM 50.5000 -97.3833 360° North 170 196 16,300 840 Climbing Winnipeg Center
09:23PM 50.5500 -97.3833 360° North 170 196 17,200 780 Climbing Winnipeg Center
09:24PM 50.5833 -97.3833 360° North 170 196 17,900 360 Climbing Winnipeg Center
09:25PM 50.6333 -97.3833 360° North 180 207 18,000  Climbing Winnipeg Center
09:26PM 50.7000 -97.3833 360° North 210 242 18,000  Level Winnipeg Center
09:27PM 50.7667 -97.4167 342° North 220 253 18,000  Level Winnipeg Center
09:28PM 50.8333 -97.4167 360° North 220 253 18,000  Level Winnipeg Center
09:29PM 50.8833 -97.4167 360° North 220 253 18,000  Level Winnipeg Center
09:30PM 50.9500 -97.4167 360° North 230 265 18,000 120 Level Winnipeg Center
09:31PM 51.0167 -97.4167 360° North 230 265 18,300 480 Climbing Winnipeg Center
09:32PM 51.0667 -97.4167 360° North 220 253 19,000 600 Climbing Winnipeg Center
09:33PM 51.1333 -97.4167 360° North 200 230 19,500 420 Climbing Winnipeg Center
09:34PM 51.1833 -97.4500 337° Northwest 200 230 19,900 240 Climbing Winnipeg Center
09:35PM 51.2500 -97.4500 360° North 210 242 20,000  Climbing Winnipeg Center
09:36PM 51.3000 -97.4500 360° North 220 253 20,000  Level Winnipeg Center
09:37PM 51.3667 -97.4500 360° North 230 265 20,000  Level Winnipeg Center
09:38PM 51.4333 -97.4500 360° North 240 276 20,000  Level Winnipeg Center
09:39PM 51.5000 -97.4833 343° North 240 276 20,000  Level Winnipeg Center
09:40PM 51.5667 -97.4833 360° North 240 276 20,000  Level Winnipeg Center
09:41PM 51.6333 -97.4833 360° North 250 288 20,000  Level Winnipeg Center
09:42PM 51.7000 -97.4833 360° North 240 276 20,000  Level Winnipeg Center
09:43PM 51.7667 -97.4833 360° North 240 276 20,000  Level Winnipeg Center
09:44PM 51.8333 -97.4833 360° North 250 288 20,000  Level Winnipeg Center
09:45PM 51.9000 -97.5000 351° North 250 288 20,000  Level Winnipeg Center
09:46PM 51.9667 -97.5000 360° North 240 276 20,000  Level Winnipeg Center
09:47PM 52.0500 -97.5167 353° North 250 288 20,000  Level Winnipeg Center
09:48PM 52.1167 -97.5167 360° North 250 288 20,000  Level Winnipeg Center
09:49PM 52.1833 -97.5167 360° North 250 288 20,000  Level Winnipeg Center
09:50PM 52.2500 -97.5333 351° North 250 288 20,000  Level Winnipeg Center
09:51PM 52.3167 -97.5333 360° North 240 276 20,000  Level Winnipeg Center
09:52PM 52.3833 -97.5333 360° North 240 276 20,000  Level Winnipeg Center
09:53PM 52.4500 -97.5333 360° North 240 276 20,000  Level Winnipeg Center
09:54PM 52.5167 -97.5500 351° North 240 276 20,000  Level Winnipeg Center
09:55PM 52.5833 -97.5500 360° North 240 276 20,000  Level Winnipeg Center
09:56PM 52.6500 -97.5667 351° North 240 276 20,000  Level Winnipeg Center
09:57PM 52.7167 -97.5667 360° North 240 276 20,000  Level Winnipeg Center
09:58PM 52.7833 -97.5667 360° North 240 276 20,000  Level Winnipeg Center
09:59PM 52.8500 -97.5667 360° North 240 276 20,000  Level Winnipeg Center
10:00PM 52.9167 -97.5667 360° North 240 276 20,000  Level Winnipeg Center
10:02PM 53.0500 -97.6000 351° North 240 276 20,000  Level Winnipeg Center
10:03PM 53.1167 -97.6000 360° North 240 276 20,000  Level Winnipeg Center
10:04PM 53.1833 -97.6000 360° North 240 276 20,000  Level Winnipeg Center
10:05PM 53.2500 -97.6000 360° North 240 276 20,000  Level Winnipeg Center
10:06PM 53.3167 -97.6167 352° North 240 276 20,000  Level Winnipeg Center
10:07PM 53.4000 -97.6167 360° North 240 276 20,000  Level Winnipeg Center
10:08PM 53.4667 -97.6333 352° North 240 276 20,000  Level Winnipeg Center
10:09PM 53.5333 -97.6333 360° North 240 276 20,000  Level Winnipeg Center
10:10PM 53.6000 -97.6333 360° North 240 276 20,000  Level Winnipeg Center
10:11PM 53.6667 -97.6333 360° North 240 276 20,000  Level Winnipeg Center
10:12PM 53.7333 -97.6500 352° North 240 276 20,000  Level Winnipeg Center
10:13PM 53.8000 -97.6667 352° North 240 276 20,000  Level Winnipeg Center
10:14PM 53.8667 -97.6667 360° North 230 265 20,000  Level Winnipeg Center
10:15PM 53.9333 -97.6667 360° North 230 265 20,000  Level Winnipeg Center
10:16PM 54.0000 -97.6833 352° North 230 265 20,000  Level Winnipeg Center
10:17PM 54.0500 -97.6833 360° North 230 265 20,000  Level Winnipeg Center
10:18PM 54.1167 -97.6833 360° North 230 265 20,000  Level Winnipeg Center
10:19PM 54.1833 -97.7000 352° North 230 265 20,000  Level Winnipeg Center
10:20PM 54.2500 -97.7000 360° North 230 265 20,000  Level Winnipeg Center
10:21PM 54.3167 -97.7167 352° North 230 265 20,000  Level Winnipeg Center
10:22PM 54.3833 -97.7167 360° North 230 265 20,000  Level Winnipeg Center
10:23PM 54.4500 -97.7167 360° North 230 265 20,000  Level Winnipeg Center
10:24PM 54.5167 -97.7333 352° North 230 265 20,000  Level Winnipeg Center
10:25PM 54.5667 -97.7500 349° North 230 265 20,000 -60 Level Winnipeg Center
10:26PM 54.6333 -97.7500 360° North 230 265 19,900 -600 Descending Winnipeg Center
10:27PM 54.7000 -97.7500 360° North 250 288 18,800 -1,020 Descending Winnipeg Center
10:28PM 54.7833 -97.7500 360° North 260 299 17,900 -900 Descending Winnipeg Center
10:29PM 54.8500 -97.7500 360° North 270 311 17,000 -900 Descending Winnipeg Center
10:30PM 54.9333 -97.7833 347° North 270 311 16,100 -1,080 Descending Winnipeg Center
10:31PM 55.0000 -97.7833 360° North 270 311 14,900 -1,200 Descending Winnipeg Center
10:32PM 55.0833 -97.7833 360° North 260 299 13,800 -1,200 Descending Winnipeg Center
10:33PM 55.1500 -97.7833 360° North 260 299 12,600 -1,380 Descending Winnipeg Center
10:34PM 55.2167 -97.7833 360° North 260 299 11,100 -1,500 Descending Winnipeg Center
10:35PM 55.2833 -97.8167 344° North 250 288 9,700 -1,500 Descending Winnipeg Center
10:36PM 55.3500 -97.8500 344° North 250 288 8,200 -1,500 Descending Winnipeg Center
10:37PM 55.4167 -97.8500 360° North 240 276 6,800 -1,440 Descending Winnipeg Center
10:38PM 55.4833 -97.8833 344° North 230 265 5,400 -1,200 Descending Winnipeg Center
10:39PM 55.5500 -97.9167 344° North 230 265 4,400 -960 Descending Winnipeg Center
10:40PM 55.6000 -97.9167 360° North 210 242 3,500 -780 Descending Winnipeg Center
10:41PM 55.6500 -97.9333 349° North 200 230 2,900 -600 Descending Winnipeg Center
10:42PM 55.7167 -97.9667 344° North 210 242 2,400 -540 Descending Winnipeg Center